Time;durP1;ratioP1;P1;durP2;ratioP2;P2;SDS_P1;SDS_P2;PMS_P1;PMS_P2;Temp;Humidity;BMP_temperature;BMP_pressure;BME280_temperature;BME280_humidity;BME280_pressure;Samples;Min_cycle;Max_cycle;Signal;HPM_P1;HPM_P2
2023/01/18 00:02:06;;;;;;;14.80;11.23;;;;;;;11.87;83.17;98048.38;5071755;28;20184;-54
2023/01/18 00:04:32;;;;;;;14.37;9.87;;;;;;;11.76;83.76;98035.59;5071587;28;20189;-54
2023/01/18 00:06:59;;;;;;;11.47;9.03;;;;;;;11.72;84.26;98045.09;5072373;28;20618;-54
2023/01/18 00:09:26;;;;;;;13.97;7.97;;;;;;;11.66;84.67;98055.41;5071544;28;20187;-54
2023/01/18 00:11:53;;;;;;;12.80;8.50;;;;;;;11.72;84.82;98059.69;5071545;28;20192;-54
2023/01/18 00:14:20;;;;;;;11.00;8.00;;;;;;;11.61;85.52;98061.50;5071545;28;20203;-54
2023/01/18 00:16:48;;;;;;;12.07;8.30;;;;;;;11.46;85.78;98056.50;5071400;28;20215;-54
2023/01/18 00:19:15;;;;;;;9.63;7.43;;;;;;;11.40;86.60;98059.97;5071222;28;20197;-54
2023/01/18 00:21:42;;;;;;;11.87;8.13;;;;;;;11.32;86.68;98051.50;5071301;28;20659;-54
2023/01/18 00:24:13;;;;;;;11.17;6.67;;;;;;;11.25;87.05;98037.88;5071530;28;20192;-54
2023/01/18 00:26:42;;;;;;;7.60;5.50;;;;;;;11.22;86.88;98021.59;5071422;28;20191;-54
2023/01/18 00:29:10;;;;;;;11.57;5.43;;;;;;;11.28;86.65;98021.56;5071629;28;20274;-54
2023/01/18 00:31:37;;;;;;;5.87;4.50;;;;;;;11.32;85.42;98037.81;5071339;28;20682;-54
2023/01/18 00:34:06;;;;;;;12.33;5.90;;;;;;;11.39;85.80;98054.84;5071161;28;20223;-54
2023/01/18 00:36:33;;;;;;;8.30;5.33;;;;;;;11.48;85.64;98067.63;5071717;28;20215;-55
2023/01/18 00:39:00;;;;;;;10.73;6.17;;;;;;;11.52;85.34;98069.28;5071262;28;20195;-54
2023/01/18 00:41:27;;;;;;;9.80;6.20;;;;;;;11.51;85.09;98070.19;5071435;28;20283;-55
2023/01/18 00:43:53;;;;;;;6.33;5.60;;;;;;;11.43;84.85;98029.09;5071174;28;20253;-54
2023/01/18 00:46:22;;;;;;;8.37;6.37;;;;;;;11.65;84.92;98060.56;5071217;28;20195;-54
2023/01/18 00:48:50;;;;;;;9.13;4.80;;;;;;;11.69;83.55;98065.72;5071074;28;20195;-54
2023/01/18 00:51:20;;;;;;;8.90;4.73;;;;;;;11.65;83.01;98055.41;5071090;28;20580;-54
2023/01/18 00:53:47;;;;;;;9.57;4.10;;;;;;;11.80;82.85;98088.75;5071282;28;20184;-54
2023/01/18 00:56:16;;;;;;;10.03;3.93;;;;;;;11.78;82.71;98087.91;5071189;28;20211;-54
2023/01/18 00:58:43;;;;;;;7.17;4.40;;;;;;;11.83;82.43;98071.56;5072960;28;20187;-54
2023/01/18 01:01:10;;;;;;;9.03;4.63;;;;;;;11.80;82.76;98079.31;5074556;28;20193;-54
2023/01/18 01:06:44;;;;;;;6.00;3.53;;;;;;;11.71;84.41;98058.81;5074778;28;20237;-54
2023/01/18 01:09:13;;;;;;;7.93;3.73;;;;;;;11.67;84.92;98064.00;5074683;28;20532;-55
2023/01/18 01:12:31;;;;;;;6.60;4.03;;;;;;;11.66;85.60;98042.56;5074414;28;20651;-54
2023/01/18 01:28:08;;;;;;;9.00;4.80;;;;;;;11.66;85.47;98042.56;5074516;28;20190;-54
2023/01/18 01:30:35;;;;;;;10.63;4.60;;;;;;;11.61;85.70;98046.06;5074186;28;20196;-54
2023/01/18 01:33:01;;;;;;;7.40;3.80;;;;;;;11.56;86.28;98051.25;5074305;28;20195;-55
2023/01/18 01:35:28;;;;;;;13.50;4.17;;;;;;;11.59;86.07;98046.06;5074037;28;20626;-54
2023/01/18 01:37:56;;;;;;;6.40;4.70;;;;;;;11.55;85.85;98046.13;5065697;28;20196;-54
2023/01/18 01:40:23;;;;;;;11.73;4.40;;;;;;;11.54;85.81;98045.25;5054086;28;20616;-54
2023/01/18 01:42:50;;;;;;;14.90;5.20;;;;;;;11.58;86.41;98059.81;5053956;28;20192;-54
2023/01/18 01:45:18;;;;;;;9.67;5.33;;;;;;;11.60;85.81;98040.06;5053864;28;20195;-54
2023/01/18 01:47:47;;;;;;;7.07;4.13;;;;;;;11.62;85.27;98022.88;5054648;28;20204;-54
2023/01/18 01:50:21;;;;;;;10.30;4.30;;;;;;;11.52;85.86;98005.00;5053815;28;20189;-54
2023/01/18 01:52:48;;;;;;;8.93;5.70;;;;;;;11.45;86.05;98008.53;5054542;28;20755;-55
2023/01/18 01:55:21;;;;;;;5.57;4.40;;;;;;;11.40;86.65;98023.16;5073704;28;20195;-55
2023/01/18 01:57:53;;;;;;;10.00;6.20;;;;;;;11.39;86.87;98024.00;5069422;28;20200;-55
2023/01/18 02:00:23;;;;;;;11.17;6.77;;;;;;;11.44;86.41;98025.66;5058206;28;20653;-54
2023/01/18 02:02:54;;;;;;;11.30;6.30;;;;;;;11.38;86.34;98036.00;5053954;28;20280;-55
2023/01/18 02:05:21;;;;;;;8.63;4.67;;;;;;;11.33;86.13;98040.34;5067027;28;20249;-55
2023/01/18 02:07:49;;;;;;;8.90;4.83;;;;;;;11.36;86.25;98040.31;5065982;28;20245;-55
2023/01/18 02:10:18;;;;;;;12.00;4.60;;;;;;;11.41;85.70;98032.53;5067027;28;20196;-55
2023/01/18 02:12:48;;;;;;;9.50;4.23;;;;;;;11.41;85.71;98029.97;5073348;28;20237;-54
2023/01/18 02:15:15;;;;;;;5.00;3.20;;;;;;;11.51;84.73;98036.75;5073352;28;20644;-54
2023/01/18 02:17:59;;;;;;;8.63;4.80;;;;;;;11.62;84.43;98040.06;5073326;28;20273;-54
2023/01/18 02:20:48;;;;;;;5.30;3.97;;;;;;;11.62;83.90;98035.72;5073116;28;20641;-54
2023/01/18 02:23:36;;;;;;;8.03;3.40;;;;;;;11.65;83.79;98051.13;5061987;28;20246;-55
2023/01/18 02:26:39;;;;;;;11.00;4.00;;;;;;;11.65;83.41;98040.84;5066865;28;20203;-54
2023/01/18 02:29:16;;;;;;;9.60;4.17;;;;;;;11.62;83.69;98033.16;5054618;28;20206;-54
2023/01/18 02:31:56;;;;;;;9.73;4.53;;;;;;;11.57;84.34;98052.09;5073286;28;20241;-54
2023/01/18 02:34:33;;;;;;;9.33;3.80;;;;;;;11.61;84.29;98056.34;5072969;28;20195;-55
2023/01/18 02:37:07;;;;;;;10.87;4.13;;;;;;;11.58;84.12;98041.78;5073099;28;20603;-54
2023/01/18 02:39:42;;;;;;;9.90;3.30;;;;;;;11.63;84.04;98013.44;5072607;28;20226;-55
2023/01/18 02:47:53;;;;;;;6.10;4.00;;;;;;;11.33;85.64;98019.78;5072721;28;20195;-54
2023/01/18 02:50:23;;;;;;;6.80;4.37;;;;;;;11.29;85.44;98030.13;5072717;28;20199;-54
2023/01/18 02:52:52;;;;;;;7.07;4.03;;;;;;;11.22;85.75;98058.44;5072742;28;20651;-54
2023/01/18 02:55:32;;;;;;;9.20;5.10;;;;;;;11.24;86.22;98059.28;5072690;28;20192;-54
2023/01/18 02:58:07;;;;;;;6.23;4.53;;;;;;;11.31;85.74;98072.94;5072651;28;20554;-54
2023/01/18 03:00:40;;;;;;;9.70;4.60;;;;;;;11.31;85.73;98054.09;5072972;28;20191;-54
2023/01/18 03:03:10;;;;;;;5.40;3.43;;;;;;;11.39;84.82;98054.84;5072657;28;20188;-54
2023/01/18 03:05:38;;;;;;;6.43;3.37;;;;;;;11.41;84.71;98061.69;5072726;28;20192;-54
2023/01/18 03:08:11;;;;;;;4.90;3.63;;;;;;;11.50;84.33;98058.19;5072241;28;20191;-54
2023/01/18 03:10:49;;;;;;;8.70;4.00;;;;;;;11.53;84.20;98041.00;5072411;28;20256;-54
2023/01/18 03:13:24;;;;;;;5.90;3.20;;;;;;;11.43;84.21;98016.22;5072782;28;20191;-54
2023/01/18 03:15:56;;;;;;;7.77;4.13;;;;;;;11.64;83.31;98054.59;5072411;28;20188;-54
2023/01/18 03:18:33;;;;;;;11.70;4.77;;;;;;;11.65;83.79;98052.84;5072538;28;20192;-54
2023/01/18 03:21:04;;;;;;;8.17;4.37;;;;;;;11.59;83.92;98058.09;5071941;28;20218;-54
2023/01/18 03:23:38;;;;;;;10.33;5.00;;;;;;;11.59;84.38;98058.09;5072325;28;20254;-55
2023/01/18 03:26:07;;;;;;;11.47;5.63;;;;;;;11.55;84.88;98048.69;5072526;28;20278;-55
2023/01/18 03:34:21;;;;;;;10.97;4.57;;;;;;;11.21;86.92;98043.88;5072190;28;20194;-55
2023/01/18 03:36:52;;;;;;;11.30;5.00;;;;;;;11.20;87.75;98044.78;5071740;28;20222;-55
2023/01/18 03:39:24;;;;;;;10.23;4.70;;;;;;;11.17;88.31;98039.66;5071738;28;20238;-55
2023/01/18 03:41:56;;;;;;;8.77;4.77;;;;;;;11.07;88.27;98037.19;5071980;28;20209;-54
2023/01/18 03:44:30;;;;;;;10.67;4.10;;;;;;;11.11;88.60;98037.13;5072705;28;20270;-55
2023/01/18 03:46:59;;;;;;;15.55;5.78;;;;;;;11.11;89.21;98033.72;5070424;28;20436;-55
2023/01/18 03:49:27;;;;;;;10.17;5.00;;;;;;;11.14;88.80;98043.97;5071866;28;20231;-55
2023/01/18 03:52:09;;;;;;;8.63;4.73;;;;;;;11.08;89.23;98062.00;5071772;28;20184;-55
2023/01/18 03:54:42;;;;;;;10.20;5.87;;;;;;;11.07;89.64;98058.56;5071828;28;20191;-55
2023/01/18 03:57:16;;;;;;;9.97;3.70;;;;;;;11.10;89.74;98040.56;5071884;28;20219;-54
2023/01/18 03:59:43;;;;;;;9.00;3.90;;;;;;;11.02;89.77;98038.94;5071602;28;20659;-54
2023/01/18 04:02:12;;;;;;;6.73;3.77;;;;;;;11.05;90.22;98049.19;5071501;28;20191;-54
2023/01/18 04:04:39;;;;;;;7.20;3.03;;;;;;;10.99;90.18;98057.78;5071603;28;20646;-54
2023/01/18 04:07:06;;;;;;;9.27;3.83;;;;;;;11.10;89.76;98058.56;5071228;28;20196;-55
2023/01/18 04:09:32;;;;;;;9.77;4.40;;;;;;;11.11;89.37;98039.72;5071358;28;20630;-54
2023/01/18 04:11:59;;;;;;;10.40;4.87;;;;;;;10.99;89.99;98044.94;5071321;28;20241;-54
2023/01/18 04:14:26;;;;;;;9.33;4.50;;;;;;;10.93;90.50;98052.69;5071314;28;20246;-54
2023/01/18 04:16:53;;;;;;;10.47;5.77;;;;;;;10.91;90.35;98062.16;5071322;28;20301;-54
2023/01/18 04:19:21;;;;;;;10.07;4.53;;;;;;;10.81;90.73;98057.09;5070956;28;20191;-53
2023/01/18 04:21:48;;;;;;;13.33;6.37;;;;;;;10.83;90.64;98048.50;5070931;28;20195;-54
2023/01/18 04:24:16;;;;;;;12.70;5.63;;;;;;;10.79;90.80;98057.13;5071321;28;20576;-54
2023/01/18 04:26:42;;;;;;;12.40;5.30;;;;;;;10.82;90.71;98077.66;5054730;28;20685;-54
2023/01/18 04:29:09;;;;;;;5.97;5.10;;;;;;;10.81;90.86;98063.09;5058059;28;20195;-54
2023/01/18 04:31:36;;;;;;;14.47;6.37;;;;;;;10.71;90.71;98084.59;5071428;28;20192;-55
2023/01/18 04:34:03;;;;;;;15.17;5.53;;;;;;;10.67;91.56;98103.44;5073788;28;20187;-55
2023/01/18 04:36:31;;;;;;;12.43;6.40;;;;;;;10.68;91.46;98088.88;5075255;28;20222;-54
2023/01/18 04:38:58;;;;;;;11.10;3.80;;;;;;;10.73;91.15;98061.44;5075066;28;20188;-54
2023/01/18 04:41:25;;;;;;;9.17;4.83;;;;;;;10.69;91.61;98070.88;5061572;28;20231;-54
2023/01/18 04:43:52;;;;;;;6.73;5.60;;;;;;;10.62;92.04;98082.06;5055061;28;20713;-54
2023/01/18 04:46:18;;;;;;;9.23;4.90;;;;;;;10.60;91.77;98076.09;5055373;28;20192;-55
2023/01/18 04:48:49;;;;;;;18.73;5.37;;;;;;;10.56;92.11;98071.84;5055262;28;20192;-54
2023/01/18 04:51:16;;;;;;;9.97;5.07;;;;;;;10.46;92.22;98078.75;5055158;28;20667;-54
2023/01/18 04:53:45;;;;;;;11.03;5.10;;;;;;;10.50;92.48;98080.44;5055141;28;20645;-54
2023/01/18 04:56:12;;;;;;;11.77;5.40;;;;;;;10.55;92.41;98072.69;5055317;28;20270;-54
2023/01/18 04:58:39;;;;;;;9.43;6.70;;;;;;;10.54;91.68;98066.72;5055110;28;20188;-55
2023/01/18 05:01:08;;;;;;;11.93;6.97;;;;;;;10.54;92.37;98083.84;5063623;28;20203;-54
2023/01/18 05:03:37;;;;;;;12.70;7.00;;;;;;;10.51;92.23;98053.03;5074898;28;20652;-54
2023/01/18 05:06:05;;;;;;;16.10;7.17;;;;;;;10.42;92.24;98050.53;5075058;28;20556;-54
2023/01/18 05:08:32;;;;;;;13.57;6.83;;;;;;;10.24;93.46;98058.34;5075018;28;20199;-55
2023/01/18 05:11:05;;;;;;;13.73;7.27;;;;;;;10.19;94.06;98084.00;5074729;28;20199;-54
2023/01/18 05:13:33;;;;;;;15.40;7.63;;;;;;;10.19;93.75;98089.16;5075104;28;20192;-54
2023/01/18 05:16:01;;;;;;;15.37;7.03;;;;;;;10.25;93.96;98119.06;5074747;28;20192;-54
2023/01/18 05:18:28;;;;;;;19.67;7.27;;;;;;;10.27;94.03;98125.06;5074643;28;20235;-54
2023/01/18 05:20:55;;;;;;;20.50;10.57;;;;;;;10.25;93.93;98114.78;5075119;28;20529;-54
2023/01/18 05:23:23;;;;;;;17.67;10.77;;;;;;;10.31;93.78;98090.81;5075134;28;20195;-55
2023/01/18 05:25:52;;;;;;;17.17;8.77;;;;;;;10.21;94.13;98107.97;5074819;28;20249;-54
2023/01/18 05:28:21;;;;;;;11.90;7.43;;;;;;;10.10;94.24;98104.56;5074480;28;20199;-54
2023/01/18 05:30:49;;;;;;;15.50;8.10;;;;;;;10.11;94.46;98090.03;5075040;28;20195;-54
2023/01/18 05:33:16;;;;;;;24.20;7.57;;;;;;;10.27;94.69;98097.69;5074512;28;20268;-54
2023/01/18 05:35:48;;;;;;;17.47;7.83;;;;;;;10.25;93.50;98093.41;5074379;28;20549;-54
2023/01/18 05:38:15;;;;;;;19.00;9.27;;;;;;;10.22;93.62;98098.56;5074623;28;20276;-54
2023/01/18 05:40:43;;;;;;;11.40;7.60;;;;;;;10.23;93.88;98100.25;5074672;28;20231;-54
2023/01/18 05:43:10;;;;;;;18.93;8.07;;;;;;;10.20;93.71;98095.13;5079047;28;20202;-55
2023/01/18 05:45:38;;;;;;;18.50;7.73;;;;;;;10.25;93.23;98099.38;5093557;28;20187;-54
2023/01/18 05:48:05;;;;;;;10.33;7.30;;;;;;;10.30;92.58;98066.03;5094702;28;20202;-55
2023/01/18 05:50:32;;;;;;;10.10;7.00;;;;;;;10.26;92.93;98100.25;5094534;28;20191;-54
2023/01/18 05:52:59;;;;;;;17.87;8.23;;;;;;;10.24;92.61;98095.13;5094169;28;20191;-55
2023/01/18 05:55:26;;;;;;;16.80;7.53;;;;;;;10.27;92.46;98102.81;5094110;28;20232;-55
2023/01/18 05:57:53;;;;;;;17.70;8.57;;;;;;;10.26;93.01;98108.81;5093975;28;20215;-55
2023/01/18 06:00:20;;;;;;;14.83;9.20;;;;;;;10.26;92.90;98107.94;5088779;28;20191;-55
2023/01/18 06:02:48;;;;;;;23.03;10.47;;;;;;;10.31;92.66;98127.59;5073634;28;20188;-55
2023/01/18 06:05:15;;;;;;;24.52;14.13;;;;;;;10.30;92.57;98123.31;5073404;28;20430;-54
2023/01/18 06:07:42;;;;;;;21.57;12.53;;;;;;;10.32;92.58;98111.34;5073817;28;20203;-55
2023/01/18 06:10:10;;;;;;;30.03;14.97;;;;;;;10.23;92.39;98131.06;5075218;28;20194;-54
2023/01/18 06:12:37;;;;;;;20.07;13.63;;;;;;;10.25;92.77;98122.50;5094058;28;20195;-55
2023/01/18 06:15:05;;;;;;;16.73;8.40;;;;;;;10.23;92.02;98120.78;5093847;28;20195;-55
2023/01/18 06:17:32;;;;;;;16.43;10.37;;;;;;;10.25;92.37;98126.75;5093640;28;20219;-55
2023/01/18 06:20:01;;;;;;;17.37;9.27;;;;;;;10.25;92.56;98129.34;5093461;28;20191;-55
2023/01/18 06:22:28;;;;;;;21.13;10.53;;;;;;;10.36;92.78;98127.56;5093519;28;20198;-54
2023/01/18 06:24:55;;;;;;;18.27;11.07;;;;;;;10.43;92.44;98150.66;5093276;28;20187;-54
2023/01/18 06:27:21;;;;;;;18.67;10.33;;;;;;;10.58;91.72;98157.41;5093690;28;20303;-54
2023/01/18 06:29:48;;;;;;;15.37;8.30;;;;;;;10.49;90.49;98144.66;5093439;28;20190;-54
2023/01/18 06:32:15;;;;;;;17.60;8.93;;;;;;;10.60;90.07;98163.41;5071287;28;20602;-55
2023/01/18 06:34:42;;;;;;;10.10;5.63;;;;;;;10.56;89.82;98146.31;5072891;28;20196;-54
2023/01/18 06:37:11;;;;;;;15.47;6.57;;;;;;;10.64;89.56;98154.81;5067757;28;20249;-56
2023/01/18 06:39:38;;;;;;;14.30;8.80;;;;;;;10.63;89.06;98148.81;5061620;28;20289;-55
2023/01/18 06:42:05;;;;;;;19.43;10.07;;;;;;;10.69;89.40;98129.94;5059320;28;20203;-56
2023/01/18 06:44:32;;;;;;;22.33;11.10;;;;;;;10.73;88.83;98166.75;5072766;28;20574;-55
2023/01/18 06:46:59;;;;;;;21.90;9.40;;;;;;;10.76;88.89;98175.31;5073972;28;20192;-55
2023/01/18 06:49:25;;;;;;;14.30;8.90;;;;;;;10.83;88.44;98160.69;5072949;28;20268;-54
2023/01/18 06:51:52;;;;;;;17.67;8.47;;;;;;;10.76;88.45;98159.03;5072805;28;20199;-54
2023/01/18 06:54:20;;;;;;;15.57;9.30;;;;;;;10.87;88.27;98168.41;5072536;28;20192;-55
2023/01/18 06:56:47;;;;;;;14.00;9.37;;;;;;;10.85;88.38;98159.81;5073523;28;20190;-55
2023/01/18 06:59:14;;;;;;;21.33;9.40;;;;;;;11.01;87.77;98168.31;5073027;28;20253;-55
2023/01/18 07:01:41;;;;;;;25.73;11.53;;;;;;;11.17;86.96;98154.47;5072166;28;20195;-55
2023/01/18 07:04:08;;;;;;;17.63;11.40;;;;;;;11.23;86.13;98144.97;5071817;28;20199;-54
2023/01/18 07:06:35;;;;;;;25.67;11.87;;;;;;;11.74;84.70;98148.84;5072347;28;20219;-55
2023/01/18 07:09:02;;;;;;;20.43;11.97;;;;;;;11.80;82.65;98177.09;5072678;28;20205;-54
2023/01/18 07:11:31;;;;;;;25.20;13.77;;;;;;;11.80;83.16;98182.25;5072141;28;20196;-55
2023/01/18 07:13:58;;;;;;;21.37;10.17;;;;;;;11.83;82.94;98169.34;5072314;28;20192;-55
2023/01/18 07:16:27;;;;;;;17.37;10.03;;;;;;;11.75;82.16;98181.44;5072277;28;20195;-55
2023/01/18 07:18:54;;;;;;;21.27;12.30;;;;;;;11.87;82.27;98195.06;5072510;28;20219;-55
2023/01/18 07:21:21;;;;;;;21.23;10.83;;;;;;;11.91;82.06;98194.13;5072257;28;20188;-55
2023/01/18 07:23:49;;;;;;;25.60;12.47;;;;;;;11.93;82.33;98194.97;5071828;28;20188;-55
2023/01/18 07:26:17;;;;;;;29.37;13.50;;;;;;;11.97;82.18;98194.09;5070789;28;20447;-55
2023/01/18 07:28:47;;;;;;;25.97;12.37;;;;;;;12.05;80.87;98189.69;5072142;28;20299;-56
2023/01/18 07:31:14;;;;;;;22.40;13.57;;;;;;;12.12;80.93;98202.47;5071919;28;20672;-57
2023/01/18 07:33:41;;;;;;;26.83;13.57;;;;;;;12.14;81.25;98195.59;5071648;28;20594;-57
2023/01/18 07:36:09;;;;;;;22.83;14.90;;;;;;;12.11;81.25;98187.06;5071795;28;20206;-57
2023/01/18 07:38:37;;;;;;;31.03;14.93;;;;;;;11.95;82.01;98185.53;5071860;28;20212;-55
2023/01/18 07:41:07;;;;;;;28.77;14.47;;;;;;;12.03;81.34;98194.03;5070717;28;20568;-55
2023/01/18 07:43:36;;;;;;;27.93;13.00;;;;;;;12.01;82.00;98186.31;5069589;28;20193;-55
2023/01/18 07:46:06;;;;;;;18.63;10.87;;;;;;;12.06;81.64;98201.72;5073940;28;20215;-55
2023/01/18 07:48:36;;;;;;;22.57;11.97;;;;;;;12.10;81.76;98226.53;5071576;28;20269;-55
2023/01/18 07:51:05;;;;;;;22.43;13.07;;;;;;;12.11;81.84;98207.66;5072701;28;20276;-56
2023/01/18 07:53:34;;;;;;;31.50;16.93;;;;;;;11.97;82.18;98207.81;5071743;28;20192;-56
2023/01/18 07:56:01;;;;;;;19.47;11.23;;;;;;;12.11;81.90;98211.09;5071274;28;20214;-56
2023/01/18 07:58:28;;;;;;;36.80;15.30;;;;;;;12.12;81.93;98212.78;5071972;28;20272;-56
2023/01/18 08:00:55;;;;;;;17.57;9.43;;;;;;;12.25;81.19;98216.09;5071736;28;20346;-56
2023/01/18 08:03:23;;;;;;;26.83;11.30;;;;;;;12.35;80.65;98231.44;5069545;28;20457;-56
2023/01/18 08:05:51;;;;;;;23.33;11.73;;;;;;;12.49;80.14;98248.44;5071803;28;20670;-55
2023/01/18 08:08:18;;;;;;;27.33;14.80;;;;;;;12.61;80.06;98240.59;5063290;28;20203;-56
2023/01/18 08:10:45;;;;;;;22.67;15.70;;;;;;;12.78;80.04;98254.09;5056166;28;20205;-56
2023/01/18 08:13:12;;;;;;;21.57;14.37;;;;;;;12.88;79.15;98242.81;5051398;28;20184;-56
2023/01/18 08:15:39;;;;;;;26.63;16.57;;;;;;;13.09;78.18;98252.00;5051494;28;20603;-56
2023/01/18 08:18:07;;;;;;;30.57;18.30;;;;;;;13.18;77.15;98255.31;5050499;28;20501;-56
2023/01/18 08:20:36;;;;;;;28.90;15.20;;;;;;;13.38;75.79;98248.13;5051822;28;20199;-56
2023/01/18 08:23:03;;;;;;;33.37;18.20;;;;;;;13.23;75.47;98214.84;5051418;28;20287;-56
2023/01/18 08:25:32;;;;;;;37.03;21.57;;;;;;;13.52;75.62;98261.69;5050877;28;20192;-56
2023/01/18 08:28:00;;;;;;;45.40;19.73;;;;;;;13.59;75.58;98259.88;5051178;28;20200;-56
2023/01/18 08:30:29;;;;;;;24.73;14.63;;;;;;;13.70;75.54;98257.97;5051245;28;20728;-56
2023/01/18 08:32:57;;;;;;;38.07;17.33;;;;;;;13.82;75.64;98234.50;5051368;28;20199;-55
2023/01/18 08:35:24;;;;;;;30.80;12.33;;;;;;;13.96;75.73;98237.72;5051108;28;20637;-56
2023/01/18 08:37:53;;;;;;;22.73;10.90;;;;;;;14.08;75.74;98253.00;5051382;28;20281;-55
2023/01/18 08:40:20;;;;;;;18.33;10.10;;;;;;;14.27;75.36;98248.34;5051085;28;20749;-56
2023/01/18 08:42:47;;;;;;;27.40;9.30;;;;;;;14.39;74.78;98253.34;5050998;28;20185;-56
2023/01/18 08:45:15;;;;;;;16.77;9.33;;;;;;;14.65;73.18;98256.25;5086442;28;20195;-56
2023/01/18 08:47:47;;;;;;;16.23;7.53;;;;;;;14.78;71.53;98249.94;5091023;28;20474;-56
2023/01/18 08:50:13;;;;;;;11.73;5.80;;;;;;;14.99;70.28;98255.56;5086777;28;20681;-56
2023/01/18 08:52:40;;;;;;;11.30;5.17;;;;;;;15.11;69.47;98266.50;5071002;28;20187;-55
2023/01/18 08:55:09;;;;;;;16.23;5.67;;;;;;;15.30;69.01;98264.34;5066129;28;20193;-56
2023/01/18 08:57:36;;;;;;;9.60;4.60;;;;;;;15.39;68.31;98256.38;5054956;28;20270;-56
2023/01/18 09:00:04;;;;;;;7.97;4.17;;;;;;;15.45;67.11;98232.97;5084898;28;20670;-56
2023/01/18 09:02:31;;;;;;;13.70;5.70;;;;;;;15.58;67.50;98247.34;5091210;28;20187;-55
2023/01/18 09:04:58;;;;;;;11.27;5.77;;;;;;;15.69;67.30;98255.69;5076355;28;20225;-56
2023/01/18 09:07:26;;;;;;;10.43;4.87;;;;;;;15.84;67.33;98265.72;5070902;28;20312;-56
2023/01/18 09:09:53;;;;;;;12.17;5.53;;;;;;;16.03;66.12;98260.91;5070986;28;20287;-57
2023/01/18 09:12:21;;;;;;;8.00;5.03;;;;;;;16.18;65.00;98257.09;5068745;28;20191;-56
2023/01/18 09:14:48;;;;;;;10.63;4.90;;;;;;;16.31;64.21;98271.41;5070562;28;20282;-56
2023/01/18 09:17:16;;;;;;;11.77;5.00;;;;;;;16.34;63.59;98261.81;5068146;28;20206;-56
2023/01/18 09:19:43;;;;;;;11.40;4.50;;;;;;;16.46;62.88;98278.78;5072376;28;20392;-56
2023/01/18 09:22:11;;;;;;;10.97;4.60;;;;;;;16.60;61.86;98265.47;5074596;28;20199;-56
2023/01/18 09:24:38;;;;;;;12.93;4.23;;;;;;;16.76;59.91;98254.63;5074265;28;20198;-55
2023/01/18 09:27:05;;;;;;;15.70;3.97;;;;;;;16.86;59.27;98275.97;5074080;28;20192;-55
2023/01/18 09:29:33;;;;;;;9.52;4.50;;;;;;;17.05;58.48;98271.97;5074098;28;20442;-56
2023/01/18 09:32:00;;;;;;;10.00;3.63;;;;;;;17.15;58.49;98270.78;5074137;28;20195;-56
2023/01/18 09:34:27;;;;;;;6.50;3.80;;;;;;;17.33;56.57;98256.41;5074194;28;20198;-56
2023/01/18 09:36:54;;;;;;;12.30;4.20;;;;;;;17.38;55.62;98257.13;5074318;28;20238;-56
2023/01/18 09:39:22;;;;;;;13.83;4.37;;;;;;;17.43;55.22;98265.63;5073967;28;20219;-55
2023/01/18 09:41:52;;;;;;;7.63;3.80;;;;;;;17.63;53.42;98261.50;5067013;28;20655;-56
2023/01/18 09:44:23;;;;;;;11.57;4.60;;;;;;;17.74;53.12;98252.56;5059166;28;20194;-56
2023/01/18 09:46:56;;;;;;;6.33;4.00;;;;;;;17.78;52.21;98242.00;5072266;28;20309;-56
2023/01/18 09:49:28;;;;;;;14.30;4.60;;;;;;;17.79;52.42;98241.13;5071858;28;20200;-56
2023/01/18 09:52:07;;;;;;;7.00;4.00;;;;;;;17.96;51.20;98254.41;5072194;28;20241;-56
2023/01/18 09:54:41;;;;;;;13.53;4.43;;;;;;;18.16;50.46;98248.50;5072283;28;20184;-56
2023/01/18 09:57:15;;;;;;;7.80;3.67;;;;;;;18.28;48.87;98248.09;5069895;28;20194;-56
2023/01/18 09:59:45;;;;;;;7.80;3.70;;;;;;;18.41;49.33;98246.78;5070523;28;20663;-56
2023/01/18 10:02:18;;;;;;;8.37;3.90;;;;;;;18.53;48.36;98253.34;5072086;28;20195;-56
2023/01/18 10:04:52;;;;;;;10.37;4.70;;;;;;;18.62;46.69;98260.81;5071590;28;20184;-56
2023/01/18 10:07:21;;;;;;;10.07;3.27;;;;;;;18.73;46.42;98271.69;5069258;28;20191;-55
2023/01/18 10:09:52;;;;;;;12.83;4.57;;;;;;;18.82;46.68;98273.94;5073042;28;20644;-55
2023/01/18 10:12:25;;;;;;;16.10;5.77;;;;;;;18.91;47.11;98258.00;5070968;28;20198;-56
2023/01/18 10:14:55;;;;;;;8.80;4.30;;;;;;;18.86;46.30;98252.13;5071956;28;20179;-55
2023/01/18 10:17:28;;;;;;;11.20;4.87;;;;;;;18.96;46.12;98255.22;5072575;28;20675;-56
2023/01/18 10:19:55;;;;;;;11.70;5.00;;;;;;;19.08;46.20;98259.97;5069135;28;20713;-57
2023/01/18 10:22:28;;;;;;;13.67;4.70;;;;;;;19.21;45.42;98253.38;5065906;28;20571;-55
2023/01/18 10:24:58;;;;;;;9.30;4.63;;;;;;;19.37;45.28;98255.34;5071352;28;20278;-54
2023/01/18 10:27:35;;;;;;;8.80;3.80;;;;;;;19.41;44.35;98256.13;5072044;28;20187;-56
2023/01/18 10:30:15;;;;;;;13.83;4.63;;;;;;;19.49;44.56;98266.22;5073230;28;20203;-56
2023/01/18 10:32:51;;;;;;;20.13;4.73;;;;;;;19.17;43.75;98197.97;5065959;28;20570;-55
2023/01/18 10:35:26;;;;;;;5.60;3.00;;;;;;;19.69;42.73;98264.56;5052661;28;20648;-55
2023/01/18 10:37:57;;;;;;;7.47;3.77;;;;;;;19.78;42.20;98274.59;5053428;28;20199;-54
2023/01/18 10:40:24;;;;;;;10.30;3.00;;;;;;;19.69;41.88;98261.09;5062013;28;20224;-54
2023/01/18 10:42:58;;;;;;;8.20;2.93;;;;;;;19.88;41.82;98269.88;5052466;28;20284;-55
2023/01/18 10:45:27;;;;;;;8.37;3.43;;;;;;;19.86;40.58;98266.47;5072451;28;20196;-55
2023/01/18 10:47:58;;;;;;;6.43;2.60;;;;;;;19.86;40.92;98269.09;5072758;28;20195;-55
2023/01/18 10:50:35;;;;;;;7.07;3.00;;;;;;;19.89;40.75;98271.53;5072531;28;20230;-56
2023/01/18 10:53:21;;;;;;;8.00;2.70;;;;;;;20.00;39.95;98272.81;5072508;28;20191;-55
2023/01/18 10:55:55;;;;;;;5.87;2.20;;;;;;;20.08;38.69;98271.66;5072965;28;20191;-56
2023/01/18 10:58:29;;;;;;;8.20;2.40;;;;;;;20.14;38.60;98271.38;5072407;28;20215;-55
2023/01/18 11:00:58;;;;;;;5.90;2.40;;;;;;;20.23;38.65;98271.84;5072185;28;20183;-55
2023/01/18 11:03:27;;;;;;;7.40;2.57;;;;;;;20.18;38.29;98266.00;5072231;28;20191;-56
2023/01/18 11:06:03;;;;;;;10.13;2.50;;;;;;;20.28;38.40;98280.38;5071935;28;20196;-56
2023/01/18 11:08:31;;;;;;;13.50;2.53;;;;;;;20.33;38.68;98282.78;5071868;28;20220;-56
2023/01/18 11:11:00;;;;;;;6.50;2.13;;;;;;;20.37;38.41;98286.97;5069843;28;20188;-56
2023/01/18 11:13:31;;;;;;;6.17;1.90;;;;;;;20.31;38.22;98282.84;5067760;28;20241;-56
2023/01/18 11:16:19;;;;;;;6.77;2.00;;;;;;;20.37;38.21;98285.22;5070671;28;20192;-56
2023/01/18 11:19:02;;;;;;;6.63;2.57;;;;;;;20.42;37.94;98278.03;5066816;28;20211;-56
2023/01/18 11:21:44;;;;;;;13.67;2.63;;;;;;;20.47;37.71;98286.50;5071430;28;20198;-56
2023/01/18 11:24:15;;;;;;;12.60;2.57;;;;;;;20.46;37.62;98268.31;5071864;28;20192;-57
2023/01/18 11:26:55;;;;;;;8.90;3.03;;;;;;;20.40;37.19;98263.34;5070281;28;20195;-57
2023/01/18 11:29:25;;;;;;;7.13;1.93;;;;;;;20.32;37.71;98265.44;5068341;28;20206;-56
2023/01/18 11:31:54;;;;;;;10.23;2.63;;;;;;;20.38;37.26;98265.19;5064282;28;20592;-56
2023/01/18 11:34:28;;;;;;;11.53;2.83;;;;;;;20.40;37.37;98268.56;5066969;28;20464;-56
2023/01/18 11:36:57;;;;;;;13.03;3.37;;;;;;;20.43;37.54;98271.06;5073832;28;20195;-57
2023/01/18 11:39:29;;;;;;;8.70;2.50;;;;;;;20.46;37.32;98274.34;5071570;28;20219;-56
2023/01/18 11:42:20;;;;;;;8.90;3.10;;;;;;;20.35;38.01;98271.38;5069470;28;20248;-56
2023/01/18 11:44:53;;;;;;;9.43;2.87;;;;;;;20.27;38.03;98268.22;5070240;28;20249;-58
2023/01/18 11:47:27;;;;;;;12.20;3.00;;;;;;;20.24;37.76;98260.56;5069717;28;20188;-57
2023/01/18 11:50:02;;;;;;;9.97;3.33;;;;;;;19.55;38.16;98130.50;5069728;28;20210;-56
2023/01/18 11:52:41;;;;;;;11.70;3.23;;;;;;;20.35;37.88;98266.16;5070201;28;20195;-57
2023/01/18 11:55:22;;;;;;;13.40;3.00;;;;;;;20.43;37.80;98278.88;5069955;28;20268;-57
2023/01/18 11:57:49;;;;;;;11.27;2.83;;;;;;;20.40;37.41;98279.84;5069779;28;20691;-57
2023/01/18 12:00:17;;;;;;;15.67;3.20;;;;;;;20.47;37.69;98286.50;5070205;28;20281;-57
2023/01/18 12:02:58;;;;;;;12.67;3.07;;;;;;;20.55;37.58;98279.19;5070881;28;20196;-57
2023/01/18 12:05:44;;;;;;;16.33;3.20;;;;;;;20.49;37.49;98284.66;5071349;28;20191;-56
2023/01/18 12:08:37;;;;;;;14.57;3.27;;;;;;;20.52;37.94;98286.28;5071230;28;20293;-56